KDAG/DAG METAR and TAF weather

Enter ICAO airport designator
Station Type Date Time Source
KDAG METAR 2020/04/06 16:50 UTC NOAA

KDAG 061650Z AUTO 03004KT 10SM OVC065 14/02 A2984 RMK AO2 SLP094 T01440022 $


Station Type Date Time Source
KDAG Decoded METAR 2020/04/06 16:50 UTC NOAA

BARSTOW-DAGGETT AIRPORT, CA, United States (KDAG) 34-51N 116-47W 587M
Apr 06, 2020 - 12:50 PM EDT / 2020.04.06 1650 UTC
Wind: from the NNE (030 degrees) at 5 MPH (4 KT):0
Visibility: 10 mile(s):0
Sky conditions: overcast
Temperature: 57.9 F (14.4 C)
Dew Point: 36.0 F (2.2 C)
Relative Humidity: 43%
Pressure (altimeter): 29.84 in. Hg (1010 hPa)
ob: KDAG 061650Z AUTO 03004KT 10SM OVC065 14/02 A2984 RMK AO2 SLP094 T01440022
cycle: 17

Station Type Date Time Source
KDAG TAF 2020/04/06 18:22 UTC NOAA

TAF KDAG 061720Z 0618/0718 27010G18KT P6SM -SHRA BKN050
FM070200 17008KT P6SM VCSH BKN050
FM070800 26007KT P6SM -SHRA SCT035 OVC050

Example: see airport list